createdAt,value
2018-08-11T00:02:17.770Z,59.20
2018-08-11T00:04:48.433Z,59.10
2018-08-11T00:07:19.090Z,58.90
2018-08-11T00:09:49.753Z,59.10
2018-08-11T00:12:20.374Z,59.10
2018-08-11T00:14:51.055Z,59.30
2018-08-11T00:17:22.037Z,59.30
2018-08-11T00:19:53.174Z,59.50
2018-08-11T00:22:24.026Z,59.60
2018-08-11T00:24:54.731Z,60.00
2018-08-11T00:27:29.961Z,60.20
2018-08-11T00:30:02.154Z,60.40
2018-08-11T00:32:32.804Z,59.40
2018-08-11T00:35:04.607Z,60.40
2018-08-11T00:37:36.799Z,59.30
2018-08-11T00:40:14.893Z,59.80
2018-08-11T00:42:46.601Z,60.00
2018-08-11T00:45:17.661Z,59.80
2018-08-11T00:47:48.840Z,59.80
2018-08-11T00:50:24.751Z,59.80
2018-08-11T00:52:55.417Z,59.60
2018-08-11T00:55:26.106Z,60.00
2018-08-11T00:57:56.721Z,61.30
2018-08-11T01:00:27.406Z,59.80
2018-08-11T01:02:58.014Z,60.00
2018-08-11T01:05:28.677Z,60.70
2018-08-11T01:07:59.337Z,59.70
2018-08-11T01:10:30.150Z,59.90
2018-08-11T01:13:00.761Z,59.90
2018-08-11T01:15:31.963Z,59.80
2018-08-11T01:18:02.623Z,59.90
2018-08-11T01:20:33.276Z,59.80
2018-08-11T01:23:04.014Z,60.00
2018-08-11T01:25:34.661Z,59.80
2018-08-11T01:28:05.994Z,60.00
2018-08-11T01:30:36.645Z,60.50
2018-08-11T01:33:07.629Z,60.10
2018-08-11T01:35:38.290Z,59.90
2018-08-11T01:38:08.922Z,59.90
2018-08-11T01:40:39.603Z,59.90
2018-08-11T01:43:10.213Z,60.30
2018-08-11T01:45:40.853Z,60.40
2018-08-11T01:48:11.562Z,59.70
2018-08-11T01:50:42.202Z,60.30
2018-08-11T01:53:12.818Z,60.00
2018-08-11T01:55:43.461Z,60.00
2018-08-11T01:58:14.113Z,60.00
2018-08-11T02:00:44.755Z,60.00
2018-08-11T02:03:15.361Z,59.40
2018-08-11T02:05:46.361Z,59.50
2018-08-11T02:08:17.320Z,60.00
2018-08-11T02:10:48.509Z,59.10
2018-08-11T02:13:19.534Z,59.40
2018-08-11T02:15:50.545Z,59.50
2018-08-11T02:18:21.227Z,59.30
2018-08-11T02:20:51.841Z,59.20
2018-08-11T02:23:22.870Z,58.40
2018-08-11T02:25:53.733Z,58.50
2018-08-11T02:28:24.414Z,58.00
2018-08-11T02:30:55.043Z,57.80
2018-08-11T02:33:25.713Z,57.90
2018-08-11T02:35:56.374Z,58.00
2018-08-11T02:38:27.341Z,60.60
2018-08-11T02:40:58.262Z,64.30
2018-08-11T02:43:28.941Z,65.20
2018-08-11T02:45:59.606Z,66.30
2018-08-11T02:48:30.814Z,66.70
2018-08-11T02:51:01.643Z,67.30
2018-08-11T02:53:32.292Z,67.30
2018-08-11T02:56:02.918Z,67.50
2018-08-11T02:58:33.578Z,67.90
2018-08-11T03:01:04.590Z,68.40
2018-08-11T03:03:35.402Z,68.30
2018-08-11T03:06:06.122Z,68.20
2018-08-11T03:08:36.774Z,67.60
2018-08-11T03:11:07.430Z,67.50
2018-08-11T03:13:38.037Z,68.70
2018-08-11T03:16:08.668Z,68.90
2018-08-11T03:18:39.342Z,68.90
2018-08-11T03:21:10.000Z,68.80
2018-08-11T03:23:41.162Z,68.40
2018-08-11T03:26:11.932Z,68.90
2018-08-11T03:28:42.681Z,69.10
2018-08-11T03:31:13.298Z,68.90
2018-08-11T03:33:44.133Z,69.50
2018-08-11T03:36:14.745Z,69.60
2018-08-11T03:38:45.392Z,69.40
2018-08-11T03:41:16.013Z,70.10
2018-08-11T03:43:46.650Z,70.20
2018-08-11T03:46:17.331Z,70.40
2018-08-11T03:48:47.933Z,70.40
2018-08-11T03:51:18.549Z,70.50
2018-08-11T03:53:49.230Z,71.50
2018-08-11T03:56:19.872Z,71.30
2018-08-11T03:58:50.505Z,71.20
2018-08-11T04:01:21.137Z,71.30
2018-08-11T04:03:51.750Z,71.90
2018-08-11T04:06:22.613Z,71.90
2018-08-11T04:08:53.225Z,71.50
2018-08-11T04:11:23.881Z,70.90
2018-08-11T04:13:54.534Z,72.10
2018-08-11T04:16:25.189Z,72.60
2018-08-11T04:18:55.809Z,72.70
2018-08-11T04:21:26.441Z,73.00
2018-08-11T04:23:57.079Z,73.20
2018-08-11T04:26:27.748Z,73.20
2018-08-11T04:28:58.378Z,73.80
2018-08-11T04:31:29.187Z,74.10
2018-08-11T04:34:00.045Z,74.40
2018-08-11T04:36:30.646Z,74.80
2018-08-11T04:39:01.653Z,75.70
2018-08-11T04:41:32.269Z,75.80
2018-08-11T04:44:02.929Z,75.60
2018-08-11T04:46:33.533Z,75.80
2018-08-11T04:49:04.198Z,76.20
2018-08-11T04:51:34.809Z,76.30
2018-08-11T04:54:05.857Z,76.30
2018-08-11T04:56:36.477Z,77.10
2018-08-11T04:59:07.133Z,77.40
2018-08-11T05:01:37.775Z,77.00
2018-08-11T05:04:08.414Z,77.40
2018-08-11T05:06:39.021Z,77.00
2018-08-11T05:09:10.309Z,77.20
2018-08-11T05:11:40.917Z,77.30
2018-08-11T05:14:11.798Z,77.30
2018-08-11T05:16:42.523Z,77.50
2018-08-11T05:19:13.532Z,77.50
2018-08-11T05:21:44.173Z,77.50
2018-08-11T05:24:14.848Z,78.00
2018-08-11T05:26:45.481Z,78.20
2018-08-11T05:29:16.125Z,78.50
2018-08-11T05:31:46.751Z,78.00
2018-08-11T05:34:17.410Z,78.60
2018-08-11T05:36:48.038Z,78.40
2018-08-11T05:39:19.029Z,78.20
2018-08-11T05:41:49.666Z,77.60
2018-08-11T05:44:20.322Z,76.20
2018-08-11T05:46:51.297Z,76.50
2018-08-11T05:49:21.961Z,75.50
2018-08-11T05:51:52.585Z,74.90
2018-08-11T05:54:23.241Z,74.70
2018-08-11T05:56:53.865Z,74.50
2018-08-11T05:59:25.387Z,73.60
2018-08-11T06:01:56.022Z,73.00
2018-08-11T06:04:26.837Z,73.50
2018-08-11T06:06:57.842Z,72.30
2018-08-11T06:09:28.553Z,72.10
2018-08-11T06:11:59.525Z,71.50
2018-08-11T06:14:30.205Z,71.20
2018-08-11T06:17:00.821Z,71.50
2018-08-11T06:19:31.560Z,70.80
2018-08-11T06:22:02.430Z,70.50
2018-08-11T06:24:37.478Z,70.10
2018-08-11T06:27:11.210Z,69.90
2018-08-11T06:29:48.582Z,69.30
2018-08-11T06:32:21.225Z,68.70
2018-08-11T06:34:53.707Z,68.40
2018-08-11T06:37:25.952Z,68.10
2018-08-11T06:39:58.376Z,67.70
2018-08-11T06:42:30.676Z,66.60
2018-08-11T06:45:05.421Z,66.10
2018-08-11T06:47:37.956Z,65.60
2018-08-11T06:50:11.323Z,65.40
2018-08-11T06:52:43.860Z,65.30
2018-08-11T06:55:18.078Z,66.00
2018-08-11T06:57:51.205Z,66.20
2018-08-11T07:00:23.327Z,66.60
2018-08-11T07:02:53.979Z,64.80
2018-08-11T07:05:24.645Z,64.90
2018-08-11T07:07:55.297Z,62.70
2018-08-11T07:10:25.969Z,62.40
2018-08-11T07:12:56.598Z,61.10
2018-08-11T07:15:27.311Z,61.00
2018-08-11T07:17:57.950Z,61.70
2018-08-11T07:20:28.610Z,60.70
2018-08-11T07:22:59.349Z,60.60
2018-08-11T07:25:30.001Z,61.30
2018-08-11T07:28:00.648Z,60.50
2018-08-11T07:30:31.782Z,59.40
2018-08-11T07:33:02.414Z,59.20
2018-08-11T07:35:33.089Z,58.70
2018-08-11T07:38:03.749Z,58.40
2018-08-11T07:40:34.597Z,58.90
2018-08-11T07:43:05.505Z,58.40
2018-08-11T07:45:36.199Z,58.40
2018-08-11T07:48:06.934Z,58.40
2018-08-11T07:50:37.985Z,58.10
2018-08-11T07:53:08.698Z,57.60
2018-08-11T07:55:39.342Z,57.50
2018-08-11T07:58:10.702Z,56.10
2018-08-11T08:00:41.361Z,56.70
2018-08-11T08:03:12.034Z,55.90
2018-08-11T08:05:42.999Z,55.40
2018-08-11T08:08:13.686Z,55.20
2018-08-11T08:10:44.358Z,55.30
2018-08-11T08:13:15.022Z,56.20
2018-08-11T08:15:45.705Z,56.80
2018-08-11T08:18:17.300Z,56.10
2018-08-11T08:20:47.918Z,56.20
2018-08-11T08:23:18.667Z,56.00
2018-08-11T08:25:49.497Z,56.00
2018-08-11T08:28:20.185Z,56.00
2018-08-11T08:30:51.316Z,56.20
2018-08-11T08:33:22.136Z,56.40
2018-08-11T08:35:52.865Z,56.50
2018-08-11T08:38:23.502Z,55.50
2018-08-11T08:40:54.145Z,55.30
2018-08-11T08:43:24.772Z,56.40
2018-08-11T08:45:55.625Z,55.40
2018-08-11T08:48:26.754Z,55.50
2018-08-11T08:50:57.759Z,55.60
2018-08-11T08:53:28.402Z,55.00
2018-08-11T08:55:59.041Z,54.60
2018-08-11T08:58:29.665Z,53.00
2018-08-11T09:01:00.660Z,52.90
2018-08-11T09:03:31.749Z,53.10
2018-08-11T09:06:02.409Z,52.20
2018-08-11T09:08:33.021Z,52.10
2018-08-11T09:11:03.677Z,50.80
2018-08-11T09:13:34.303Z,51.00
2018-08-11T09:16:05.669Z,50.40
2018-08-11T09:18:36.697Z,50.40
2018-08-11T09:21:07.710Z,50.60
2018-08-11T09:23:38.408Z,50.80
2018-08-11T09:26:09.125Z,49.30
2018-08-11T09:28:40.358Z,48.80
2018-08-11T09:31:10.989Z,48.30
2018-08-11T09:33:41.661Z,48.40
2018-08-11T09:36:12.334Z,49.10
2018-08-11T09:38:43.009Z,48.10
2018-08-11T09:41:13.654Z,48.90
2018-08-11T09:43:44.261Z,49.50
2018-08-11T09:46:15.263Z,50.70
2018-08-11T09:48:45.906Z,46.80
2018-08-11T09:51:16.734Z,46.70
2018-08-11T09:53:47.085Z,44.20
2018-08-11T09:56:17.693Z,44.90
2018-08-11T09:58:48.416Z,43.50
2018-08-11T10:01:24.440Z,45.60
2018-08-11T10:03:54.794Z,44.90
2018-08-11T10:06:25.402Z,43.30
2018-08-11T10:08:55.768Z,44.20
2018-08-11T10:11:26.373Z,44.40
2018-08-11T10:13:56.749Z,44.80
2018-08-11T10:16:27.106Z,45.00
2018-08-11T10:18:57.489Z,43.30
2018-08-11T10:21:28.094Z,42.70
2018-08-11T10:23:59.250Z,44.00
2018-08-11T10:26:29.957Z,42.90
2018-08-11T10:29:00.581Z,44.10
2018-08-11T10:31:30.939Z,43.60
2018-08-11T10:34:01.270Z,43.90
2018-08-11T10:36:31.629Z,43.90
2018-08-11T10:39:01.986Z,44.00
2018-08-11T10:41:32.361Z,42.60
2018-08-11T10:44:03.041Z,41.90
2018-08-11T10:46:33.553Z,42.70
2018-08-11T10:49:04.354Z,43.00
2018-08-11T10:51:34.930Z,43.00
2018-08-11T10:54:05.274Z,43.50
2018-08-11T10:56:35.794Z,41.80
2018-08-11T10:59:06.209Z,41.30
2018-08-11T11:01:36.577Z,41.20
2018-08-11T11:04:06.965Z,41.30
2018-08-11T11:06:37.305Z,41.80
2018-08-11T11:09:08.949Z,40.60
2018-08-11T11:11:39.766Z,40.00
2018-08-11T11:14:10.175Z,40.00
2018-08-11T11:16:40.725Z,40.70
2018-08-11T11:19:11.106Z,41.00
2018-08-11T11:21:41.494Z,40.30
2018-08-11T11:24:11.827Z,39.30
2018-08-11T11:26:42.208Z,39.20
2018-08-11T11:29:12.527Z,38.10
2018-08-11T11:31:42.877Z,39.40
2018-08-11T11:34:13.242Z,37.80
2018-08-11T11:36:43.960Z,38.40
2018-08-11T11:39:14.485Z,39.70
2018-08-11T11:41:44.853Z,39.20
2018-08-11T11:44:15.193Z,38.80
2018-08-11T11:46:45.740Z,36.90
2018-08-11T11:49:16.274Z,38.60
2018-08-11T11:51:46.649Z,38.00
2018-08-11T11:54:16.989Z,37.90
2018-08-11T11:56:47.357Z,37.80
2018-08-11T11:59:17.685Z,38.40
2018-08-11T12:01:48.073Z,37.70
2018-08-11T12:04:18.434Z,38.20
2018-08-11T12:06:49.049Z,36.30
2018-08-11T12:09:19.402Z,34.90
2018-08-11T12:11:49.786Z,35.10
2018-08-11T12:14:20.306Z,35.50
2018-08-11T12:16:50.689Z,35.40
2018-08-11T12:19:21.076Z,35.70
2018-08-11T12:21:52.010Z,36.20
2018-08-11T12:24:22.321Z,35.80
2018-08-11T12:26:53.113Z,37.10
2018-08-11T12:29:23.449Z,36.00
2018-08-11T12:31:53.818Z,35.40
2018-08-11T12:34:24.151Z,35.60
2018-08-11T12:36:54.529Z,35.50
2018-08-11T12:39:24.877Z,35.40
2018-08-11T12:41:55.433Z,35.50
2018-08-11T12:44:25.786Z,35.90
2018-08-11T12:46:56.137Z,35.50
2018-08-11T12:49:26.488Z,34.10
2018-08-11T12:51:56.846Z,35.60
2018-08-11T12:54:27.230Z,36.20
2018-08-11T12:56:57.617Z,36.00
2018-08-11T12:59:27.986Z,34.40
2018-08-11T13:01:58.346Z,33.30
2018-08-11T13:04:28.886Z,32.90
2018-08-11T13:06:59.290Z,34.10
2018-08-11T13:09:29.826Z,34.90
2018-08-11T13:12:00.541Z,34.10
2018-08-11T13:14:30.981Z,33.90
2018-08-11T13:17:01.374Z,33.90
2018-08-11T13:19:31.769Z,34.10
2018-08-11T13:22:02.126Z,33.50
2018-08-11T13:24:32.505Z,33.60
2018-08-11T13:27:03.213Z,34.50
2018-08-11T13:29:33.555Z,33.40
2018-08-11T13:32:03.977Z,32.20
2018-08-11T13:34:34.313Z,33.00
2018-08-11T13:37:04.729Z,33.20
2018-08-11T13:39:35.258Z,33.90
2018-08-11T13:42:05.655Z,34.00
2018-08-11T13:44:36.084Z,33.50
2018-08-11T13:47:06.681Z,34.30
2018-08-11T13:49:37.241Z,33.30
2018-08-11T13:52:07.805Z,33.90
2018-08-11T13:54:38.389Z,32.60
2018-08-11T13:57:08.745Z,32.00
2018-08-11T13:59:39.277Z,33.00
2018-08-11T14:02:09.710Z,33.30
2018-08-11T14:04:40.262Z,33.80
2018-08-11T14:07:10.586Z,33.20
2018-08-11T14:09:41.288Z,34.00
2018-08-11T14:12:11.625Z,33.40
2018-08-11T14:14:42.021Z,33.70
2018-08-11T14:17:12.739Z,32.90
2018-08-11T14:19:43.063Z,33.70
2018-08-11T14:22:13.614Z,32.50
2018-08-11T14:24:43.957Z,32.50
2018-08-11T14:27:14.318Z,32.60
2018-08-11T14:29:45.018Z,33.30
2018-08-11T14:32:15.369Z,34.50
2018-08-11T14:34:45.778Z,33.50
2018-08-11T14:37:16.337Z,32.40
2018-08-11T14:39:46.693Z,33.00
2018-08-11T14:42:17.073Z,33.20
2018-08-11T14:44:47.750Z,33.00
2018-08-11T14:47:18.161Z,32.70
2018-08-11T14:49:48.506Z,33.00
2018-08-11T14:52:19.277Z,33.50
2018-08-11T14:54:49.638Z,34.50
2018-08-11T14:57:20.013Z,33.80
2018-08-11T14:59:50.453Z,34.30
2018-08-11T15:02:20.833Z,34.80
2018-08-11T15:04:51.184Z,35.40
2018-08-11T15:07:21.546Z,34.70
2018-08-11T15:09:52.078Z,34.30
2018-08-11T15:12:22.585Z,34.30
2018-08-11T15:14:52.945Z,36.00
2018-08-11T15:17:23.342Z,34.20
2018-08-11T15:19:53.947Z,33.30
2018-08-11T15:22:24.346Z,33.30
2018-08-11T15:24:54.731Z,32.40
2018-08-11T15:27:25.205Z,33.90
2018-08-11T15:29:55.593Z,33.50
2018-08-11T15:32:26.119Z,33.60
2018-08-11T15:34:56.550Z,33.70
2018-08-11T15:37:26.908Z,33.30
2018-08-11T15:39:57.807Z,33.50
2018-08-11T15:42:28.145Z,33.80
2018-08-11T15:45:01.783Z,33.70
2018-08-11T15:47:37.666Z,34.40
2018-08-11T15:50:15.040Z,35.60
2018-08-11T15:52:48.245Z,33.90
2018-08-11T15:55:29.730Z,34.20
2018-08-11T15:58:04.975Z,34.30
2018-08-11T16:00:38.804Z,34.00
2018-08-11T16:03:12.275Z,34.40
2018-08-11T16:05:48.099Z,34.20
2018-08-11T16:08:25.311Z,33.80
2018-08-11T16:11:00.961Z,33.50
2018-08-11T16:13:36.674Z,35.90
2018-08-11T16:16:11.346Z,34.60
2018-08-11T16:18:47.280Z,34.10
2018-08-11T16:21:21.091Z,34.50
2018-08-11T16:23:54.505Z,34.50
2018-08-11T16:26:29.179Z,34.90
2018-08-11T16:29:03.133Z,34.10
2018-08-11T16:31:38.028Z,34.70
2018-08-11T16:34:10.795Z,35.80
2018-08-11T16:36:45.319Z,35.50
2018-08-11T16:39:19.818Z,35.30
2018-08-11T16:41:58.411Z,35.00
2018-08-11T16:44:34.124Z,34.80
2018-08-11T16:47:08.059Z,35.00
2018-08-11T16:49:43.005Z,34.80
2018-08-11T16:52:19.770Z,35.30
2018-08-11T16:54:50.824Z,37.00
2018-08-11T16:57:24.133Z,36.30
2018-08-11T16:59:55.885Z,35.40
2018-08-11T17:02:28.679Z,36.20
2018-08-11T17:05:02.787Z,35.60
2018-08-11T17:07:36.872Z,35.70
2018-08-11T17:10:12.793Z,35.60
2018-08-11T17:12:45.362Z,35.90
2018-08-11T17:15:17.525Z,35.00
2018-08-11T17:17:50.281Z,35.70
2018-08-11T17:20:24.196Z,35.60
2018-08-11T17:22:56.823Z,35.80
2018-08-11T17:25:29.027Z,36.10
2018-08-11T17:28:00.657Z,36.50
2018-08-11T17:30:32.196Z,37.30
2018-08-11T17:33:04.100Z,36.00
2018-08-11T17:35:38.923Z,36.50
2018-08-11T17:38:09.266Z,36.50
2018-08-11T17:40:39.642Z,35.70
2018-08-11T17:43:09.982Z,35.60
2018-08-11T17:45:40.413Z,35.40
2018-08-11T17:48:10.912Z,36.90
2018-08-11T17:50:41.615Z,36.10
2018-08-11T17:53:11.975Z,37.40
2018-08-11T17:55:42.323Z,37.60
2018-08-11T17:58:12.893Z,37.20
2018-08-11T18:00:43.259Z,37.60
2018-08-11T18:03:13.621Z,37.00
2018-08-11T18:05:43.969Z,37.40
2018-08-11T18:08:14.334Z,37.90
2018-08-11T18:10:44.680Z,37.60
2018-08-11T18:13:15.790Z,38.00
2018-08-11T18:15:46.205Z,37.70
2018-08-11T18:18:16.574Z,38.60
2018-08-11T18:20:47.114Z,39.10
2018-08-11T18:23:17.725Z,38.00
2018-08-11T18:25:48.490Z,38.70
2018-08-11T18:28:18.814Z,38.60
2018-08-11T18:30:49.537Z,38.20
2018-08-11T18:33:19.877Z,39.20
2018-08-11T18:35:50.294Z,40.00
2018-08-11T18:38:20.646Z,39.70
2018-08-11T18:40:51.022Z,39.10
2018-08-11T18:43:21.425Z,39.80
2018-08-11T18:45:52.406Z,39.20
2018-08-11T18:48:22.745Z,39.70
2018-08-11T18:50:53.125Z,40.10
2018-08-11T18:53:23.474Z,41.20
2018-08-11T18:55:53.843Z,40.20
2018-08-11T18:58:24.282Z,40.30
2018-08-11T19:00:55.035Z,40.40
2018-08-11T19:03:25.617Z,41.00
2018-08-11T19:05:56.347Z,42.00
2018-08-11T19:08:26.686Z,42.40
2018-08-11T19:10:57.518Z,42.80
2018-08-11T19:13:27.922Z,43.00
2018-08-11T19:15:58.641Z,42.30
2018-08-11T19:18:29.062Z,42.30
2018-08-11T19:20:59.733Z,43.10
2018-08-11T19:23:30.127Z,43.60
2018-08-11T19:26:00.491Z,44.60
2018-08-11T19:28:31.061Z,45.60
2018-08-11T19:31:01.401Z,45.60
2018-08-11T19:33:31.822Z,45.40
2018-08-11T19:36:02.748Z,45.80
2018-08-11T19:38:33.425Z,45.40
2018-08-11T19:41:03.874Z,45.70
2018-08-11T19:43:34.516Z,46.20
2018-08-11T19:46:05.063Z,46.60
2018-08-11T19:48:35.571Z,45.90
2018-08-11T19:51:06.362Z,46.40
2018-08-11T19:53:36.717Z,47.40
2018-08-11T19:56:07.111Z,47.10
2018-08-11T19:58:37.802Z,49.00
2018-08-11T20:01:08.468Z,48.20
2018-08-11T20:03:39.161Z,48.80
2018-08-11T20:06:09.839Z,48.60
2018-08-11T20:08:40.646Z,49.40
2018-08-11T20:11:11.397Z,49.30
2018-08-11T20:13:42.069Z,50.00
2018-08-11T20:16:13.574Z,49.60
2018-08-11T20:18:44.962Z,50.30
2018-08-11T20:21:15.933Z,51.10
2018-08-11T20:23:46.594Z,50.30
2018-08-11T20:26:17.237Z,51.00
2018-08-11T20:28:48.213Z,51.80
2018-08-11T20:31:19.218Z,51.80
2018-08-11T20:33:49.842Z,51.40
2018-08-11T20:36:20.881Z,52.00
2018-08-11T20:38:51.494Z,52.60
2018-08-11T20:41:22.158Z,52.60
2018-08-11T20:43:53.186Z,53.20
2018-08-11T20:46:30.744Z,52.80
2018-08-11T20:49:01.822Z,52.60
2018-08-11T20:51:33.158Z,53.20
2018-08-11T20:54:04.138Z,53.80
2018-08-11T20:56:35.021Z,53.80
2018-08-11T20:59:05.662Z,54.80
2018-08-11T21:01:36.378Z,55.00
2018-08-11T21:04:07.368Z,55.70
2018-08-11T21:06:38.229Z,55.20
2018-08-11T21:09:12.246Z,55.10
2018-08-11T21:11:42.925Z,54.90
2018-08-11T21:14:14.294Z,54.90
2018-08-11T21:16:45.294Z,55.10
2018-08-11T21:19:16.309Z,55.10
2018-08-11T21:21:47.622Z,55.30
2018-08-11T21:24:18.358Z,55.40
2018-08-11T21:26:48.962Z,55.80
2018-08-11T21:29:19.616Z,55.60
2018-08-11T21:31:50.585Z,55.90
2018-08-11T21:34:21.300Z,56.40
2018-08-11T21:36:52.144Z,56.70
2018-08-11T21:39:22.986Z,56.30
2018-08-11T21:41:53.623Z,56.20
2018-08-11T21:44:25.950Z,55.60
2018-08-11T21:46:58.716Z,56.10
2018-08-11T21:49:32.543Z,56.00
2018-08-11T21:52:09.392Z,56.20
2018-08-11T21:54:41.327Z,56.20
2018-08-11T21:57:15.405Z,56.20
2018-08-11T21:59:48.111Z,56.30
2018-08-11T22:02:21.001Z,56.40
2018-08-11T22:04:54.105Z,56.40
2018-08-11T22:07:27.012Z,57.70
2018-08-11T22:10:00.500Z,56.70
2018-08-11T22:12:32.967Z,57.00
2018-08-11T22:15:06.080Z,57.30
2018-08-11T22:17:39.625Z,57.10
2018-08-11T22:20:11.697Z,57.60
2018-08-11T22:22:44.219Z,57.80
2018-08-11T22:25:16.598Z,58.00
2018-08-11T22:27:49.123Z,58.80
2018-08-11T22:30:23.848Z,58.60
2018-08-11T22:32:55.934Z,58.50
2018-08-11T22:35:27.767Z,58.50
2018-08-11T22:37:59.034Z,58.60
2018-08-11T22:40:29.787Z,58.90
2018-08-11T22:43:00.873Z,59.90
2018-08-11T22:45:31.881Z,59.70
2018-08-11T22:48:02.874Z,60.80
2018-08-11T22:50:33.674Z,61.10
2018-08-11T22:53:04.346Z,61.70
2018-08-11T22:55:35.061Z,61.60
2018-08-11T22:58:05.809Z,60.90
2018-08-11T23:00:36.478Z,60.50
2018-08-11T23:03:07.450Z,63.00
2018-08-11T23:05:38.133Z,62.50
2018-08-11T23:08:08.789Z,62.50
2018-08-11T23:10:39.477Z,62.80
2018-08-11T23:13:10.090Z,61.90
2018-08-11T23:15:41.107Z,62.70
2018-08-11T23:18:11.783Z,62.40
2018-08-11T23:20:42.657Z,62.50
2018-08-11T23:23:13.291Z,63.10
2018-08-11T23:25:44.631Z,63.10
2018-08-11T23:28:15.620Z,63.50
2018-08-11T23:30:46.514Z,63.10
2018-08-11T23:33:17.129Z,63.50
2018-08-11T23:35:48.458Z,63.30
2018-08-11T23:38:19.113Z,63.30
2018-08-11T23:40:49.773Z,63.40
2018-08-11T23:43:20.413Z,63.60
2018-08-11T23:45:51.065Z,63.30
2018-08-11T23:48:22.086Z,64.90
2018-08-11T23:50:52.747Z,63.70
2018-08-11T23:53:23.713Z,63.50
2018-08-11T23:55:54.378Z,63.90
2018-08-11T23:58:25.103Z,63.80
